sensor_id;sensor_type;location;lat;lon;timestamp;pressure;altitude;pressure_sealevel;temperature;humidity
23616;BME280;11985;49.404;7.734;2024-03-22T00:03:21;97974.81;;;7.65;100.00
23616;BME280;11985;49.404;7.734;2024-03-22T00:08:23;97964.22;;;7.59;100.00
23616;BME280;11985;49.404;7.734;2024-03-22T00:13:25;97959.81;;;7.51;100.00
23616;BME280;11985;49.404;7.734;2024-03-22T00:18:28;97958.69;;;7.46;100.00
23616;BME280;11985;49.404;7.734;2024-03-22T00:23:29;97955.94;;;7.39;100.00
23616;BME280;11985;49.404;7.734;2024-03-22T00:28:31;97951.50;;;7.31;100.00
23616;BME280;11985;49.404;7.734;2024-03-22T00:33:34;97950.22;;;7.27;100.00
23616;BME280;11985;49.404;7.734;2024-03-22T00:38:36;97944.97;;;7.27;100.00
23616;BME280;11985;49.404;7.734;2024-03-22T00:43:38;97938.44;;;7.23;100.00
23616;BME280;11985;49.404;7.734;2024-03-22T00:48:41;97936.16;;;7.20;100.00
23616;BME280;11985;49.404;7.734;2024-03-22T00:53:43;97918.97;;;7.18;100.00
23616;BME280;11985;49.404;7.734;2024-03-22T00:58:44;97919.78;;;7.18;100.00
23616;BME280;11985;49.404;7.734;2024-03-22T01:03:47;97913.59;;;7.11;100.00
23616;BME280;11985;49.404;7.734;2024-03-22T01:08:49;97900.19;;;7.06;100.00
23616;BME280;11985;49.404;7.734;2024-03-22T01:13:52;97897.38;;;7.07;100.00
23616;BME280;11985;49.404;7.734;2024-03-22T01:18:54;97899.16;;;7.15;100.00
23616;BME280;11985;49.404;7.734;2024-03-22T01:23:56;97908.31;;;7.19;100.00
23616;BME280;11985;49.404;7.734;2024-03-22T01:28:58;97901.78;;;7.23;100.00
23616;BME280;11985;49.404;7.734;2024-03-22T01:34:01;97890.63;;;7.21;100.00
23616;BME280;11985;49.404;7.734;2024-03-22T01:39:02;97880.31;;;7.20;100.00
23616;BME280;11985;49.404;7.734;2024-03-22T01:44:04;97883.44;;;7.15;100.00
23616;BME280;11985;49.404;7.734;2024-03-22T01:49:08;97880.19;;;7.13;100.00
23616;BME280;11985;49.404;7.734;2024-03-22T01:54:11;97874.81;;;7.06;100.00
23616;BME280;11985;49.404;7.734;2024-03-22T01:59:12;97875.63;;;7.07;100.00
23616;BME280;11985;49.404;7.734;2024-03-22T02:04:16;97877.88;;;7.10;100.00
23616;BME280;11985;49.404;7.734;2024-03-22T02:09:17;97875.28;;;7.10;100.00
23616;BME280;11985;49.404;7.734;2024-03-22T02:14:21;97882.00;;;7.12;100.00
23616;BME280;11985;49.404;7.734;2024-03-22T02:19:24;97872.97;;;7.15;100.00
23616;BME280;11985;49.404;7.734;2024-03-22T02:24:27;97868.75;;;7.06;100.00
23616;BME280;11985;49.404;7.734;2024-03-22T02:29:28;97857.47;;;7.05;100.00
23616;BME280;11985;49.404;7.734;2024-03-22T02:34:30;97854.66;;;7.07;100.00
23616;BME280;11985;49.404;7.734;2024-03-22T02:39:33;97842.56;;;7.06;100.00
23616;BME280;11985;49.404;7.734;2024-03-22T02:44:35;97836.50;;;7.05;100.00
23616;BME280;11985;49.404;7.734;2024-03-22T02:49:42;97838.13;;;7.06;100.00
23616;BME280;11985;49.404;7.734;2024-03-22T02:54:46;97826.50;;;7.09;100.00
23616;BME280;11985;49.404;7.734;2024-03-22T02:59:47;97821.75;;;7.12;100.00
23616;BME280;11985;49.404;7.734;2024-03-22T03:04:49;97814.69;;;7.13;100.00
23616;BME280;11985;49.404;7.734;2024-03-22T03:09:52;97817.50;;;7.11;100.00
23616;BME280;11985;49.404;7.734;2024-03-22T03:14:54;97813.88;;;7.12;100.00
23616;BME280;11985;49.404;7.734;2024-03-22T03:19:55;97820.13;;;7.11;100.00
23616;BME280;11985;49.404;7.734;2024-03-22T03:24:58;97818.47;;;7.10;100.00
23616;BME280;11985;49.404;7.734;2024-03-22T03:30:00;97821.25;;;7.09;100.00
23616;BME280;11985;49.404;7.734;2024-03-22T03:35:02;97818.31;;;7.04;100.00
23616;BME280;11985;49.404;7.734;2024-03-22T03:40:08;97808.53;;;6.98;100.00
23616;BME280;11985;49.404;7.734;2024-03-22T03:45:10;97805.72;;;6.99;100.00
23616;BME280;11985;49.404;7.734;2024-03-22T03:50:12;97803.59;;;7.03;100.00
23616;BME280;11985;49.404;7.734;2024-03-22T03:55:15;97800.66;;;7.06;100.00
23616;BME280;11985;49.404;7.734;2024-03-22T04:00:18;97791.44;;;7.10;100.00
23616;BME280;11985;49.404;7.734;2024-03-22T04:05:20;97784.94;;;7.06;100.00
23616;BME280;11985;49.404;7.734;2024-03-22T04:10:23;97779.41;;;7.01;100.00
23616;BME280;11985;49.404;7.734;2024-03-22T04:15:24;97775.47;;;6.97;100.00
23616;BME280;11985;49.404;7.734;2024-03-22T04:20:26;97775.00;;;6.93;100.00
23616;BME280;11985;49.404;7.734;2024-03-22T04:25:29;97765.06;;;6.88;100.00
23616;BME280;11985;49.404;7.734;2024-03-22T04:30:30;97766.81;;;6.88;100.00
23616;BME280;11985;49.404;7.734;2024-03-22T04:35:32;97766.00;;;6.87;100.00
23616;BME280;11985;49.404;7.734;2024-03-22T04:40:35;97767.00;;;6.86;100.00
23616;BME280;11985;49.404;7.734;2024-03-22T04:45:36;97763.25;;;6.81;100.00
23616;BME280;11985;49.404;7.734;2024-03-22T04:50:38;97761.13;;;6.84;100.00
23616;BME280;11985;49.404;7.734;2024-03-22T04:55:42;97767.75;;;7.03;100.00
23616;BME280;11985;49.404;7.734;2024-03-22T05:00:45;97764.16;;;7.35;100.00
23616;BME280;11985;49.404;7.734;2024-03-22T05:05:47;97774.66;;;7.58;100.00
23616;BME280;11985;49.404;7.734;2024-03-22T05:10:50;97765.56;;;7.69;100.00
23616;BME280;11985;49.404;7.734;2024-03-22T05:15:52;97763.00;;;7.61;100.00
23616;BME280;11985;49.404;7.734;2024-03-22T05:20:53;97770.69;;;7.39;100.00
23616;BME280;11985;49.404;7.734;2024-03-22T05:25:56;97775.16;;;7.31;100.00
23616;BME280;11985;49.404;7.734;2024-03-22T05:31:00;97787.81;;;7.19;100.00
23616;BME280;11985;49.404;7.734;2024-03-22T05:36:01;97777.22;;;7.12;100.00
23616;BME280;11985;49.404;7.734;2024-03-22T05:41:05;97770.56;;;6.94;100.00
23616;BME280;11985;49.404;7.734;2024-03-22T05:46:07;97760.31;;;6.84;100.00
23616;BME280;11985;49.404;7.734;2024-03-22T05:51:08;97753.59;;;6.90;100.00
23616;BME280;11985;49.404;7.734;2024-03-22T05:56:11;97750.22;;;7.04;100.00
23616;BME280;11985;49.404;7.734;2024-03-22T06:01:13;97752.81;;;7.12;100.00
23616;BME280;11985;49.404;7.734;2024-03-22T06:06:14;97743.28;;;7.19;100.00
23616;BME280;11985;49.404;7.734;2024-03-22T06:11:17;97739.94;;;7.33;100.00
23616;BME280;11985;49.404;7.734;2024-03-22T06:16:19;97739.84;;;7.50;100.00
23616;BME280;11985;49.404;7.734;2024-03-22T06:21:21;97749.13;;;7.75;100.00
23616;BME280;11985;49.404;7.734;2024-03-22T06:26:26;97731.84;;;8.04;100.00
23616;BME280;11985;49.404;7.734;2024-03-22T06:31:28;97724.56;;;8.29;100.00
23616;BME280;11985;49.404;7.734;2024-03-22T06:36:31;97731.09;;;8.48;100.00
23616;BME280;11985;49.404;7.734;2024-03-22T06:41:35;97725.59;;;8.72;100.00
23616;BME280;11985;49.404;7.734;2024-03-22T06:46:37;97735.59;;;8.98;100.00
23616;BME280;11985;49.404;7.734;2024-03-22T06:51:39;97727.56;;;9.21;100.00
23616;BME280;11985;49.404;7.734;2024-03-22T06:56:42;97714.94;;;9.31;100.00
23616;BME280;11985;49.404;7.734;2024-03-22T07:01:44;97709.34;;;9.34;100.00
23616;BME280;11985;49.404;7.734;2024-03-22T07:06:45;97703.81;;;9.29;100.00
23616;BME280;11985;49.404;7.734;2024-03-22T07:11:48;97699.94;;;9.25;100.00
23616;BME280;11985;49.404;7.734;2024-03-22T07:16:51;97700.94;;;9.24;100.00
23616;BME280;11985;49.404;7.734;2024-03-22T07:21:54;97702.31;;;9.20;100.00
23616;BME280;11985;49.404;7.734;2024-03-22T07:26:57;97694.22;;;9.21;100.00
23616;BME280;11985;49.404;7.734;2024-03-22T07:31:58;97691.03;;;9.26;100.00
23616;BME280;11985;49.404;7.734;2024-03-22T07:37:00;97682.66;;;9.37;100.00
23616;BME280;11985;49.404;7.734;2024-03-22T07:42:03;97682.66;;;9.59;100.00
23616;BME280;11985;49.404;7.734;2024-03-22T07:47:05;97684.91;;;9.83;100.00
23616;BME280;11985;49.404;7.734;2024-03-22T07:52:06;97690.88;;;9.98;100.00
23616;BME280;11985;49.404;7.734;2024-03-22T07:57:09;97683.22;;;10.03;100.00
23616;BME280;11985;49.404;7.734;2024-03-22T08:02:11;97682.00;;;9.99;100.00
23616;BME280;11985;49.404;7.734;2024-03-22T08:07:13;97671.06;;;10.02;100.00
23616;BME280;11985;49.404;7.734;2024-03-22T08:12:16;97673.94;;;10.08;100.00
23616;BME280;11985;49.404;7.734;2024-03-22T08:17:19;97674.38;;;10.11;100.00
23616;BME280;11985;49.404;7.734;2024-03-22T08:22:21;97660.56;;;10.09;100.00
23616;BME280;11985;49.404;7.734;2024-03-22T08:27:24;97656.19;;;10.16;100.00
23616;BME280;11985;49.404;7.734;2024-03-22T08:32:26;97668.44;;;10.30;100.00
23616;BME280;11985;49.404;7.734;2024-03-22T08:37:27;97657.34;;;10.35;100.00
23616;BME280;11985;49.404;7.734;2024-03-22T08:42:30;97658.47;;;10.61;100.00
23616;BME280;11985;49.404;7.734;2024-03-22T08:47:32;97649.81;;;10.80;100.00
23616;BME280;11985;49.404;7.734;2024-03-22T08:52:35;97644.78;;;10.85;100.00
23616;BME280;11985;49.404;7.734;2024-03-22T08:57:38;97638.94;;;10.96;100.00
23616;BME280;11985;49.404;7.734;2024-03-22T09:02:40;97631.03;;;10.96;100.00
23616;BME280;11985;49.404;7.734;2024-03-22T09:07:41;97620.88;;;10.93;100.00
23616;BME280;11985;49.404;7.734;2024-03-22T09:12:44;97616.63;;;10.99;100.00
23616;BME280;11985;49.404;7.734;2024-03-22T09:17:46;97614.41;;;11.02;100.00
23616;BME280;11985;49.404;7.734;2024-03-22T09:22:47;97609.16;;;11.16;100.00
23616;BME280;11985;49.404;7.734;2024-03-22T09:27:50;97614.88;;;11.39;100.00
23616;BME280;11985;49.404;7.734;2024-03-22T09:32:52;97604.94;;;11.54;100.00
23616;BME280;11985;49.404;7.734;2024-03-22T09:37:54;97596.19;;;11.54;100.00
23616;BME280;11985;49.404;7.734;2024-03-22T09:43:01;97600.66;;;11.53;100.00
23616;BME280;11985;49.404;7.734;2024-03-22T09:48:05;97583.59;;;11.76;100.00
23616;BME280;11985;49.404;7.734;2024-03-22T09:53:08;97577.72;;;12.00;100.00
23616;BME280;11985;49.404;7.734;2024-03-22T09:58:12;97568.75;;;12.08;100.00
23616;BME280;11985;49.404;7.734;2024-03-22T10:03:14;97570.53;;;12.27;100.00
23616;BME280;11985;49.404;7.734;2024-03-22T10:08:16;97567.88;;;12.34;100.00
23616;BME280;11985;49.404;7.734;2024-03-22T10:13:19;97562.75;;;12.39;100.00
23616;BME280;11985;49.404;7.734;2024-03-22T10:18:21;97550.16;;;12.41;100.00
23616;BME280;11985;49.404;7.734;2024-03-22T10:23:25;97546.63;;;12.54;100.00
23616;BME280;11985;49.404;7.734;2024-03-22T10:28:28;97543.97;;;12.60;100.00
23616;BME280;11985;49.404;7.734;2024-03-22T10:33:30;97540.03;;;12.69;100.00
23616;BME280;11985;49.404;7.734;2024-03-22T10:38:32;97534.75;;;13.01;100.00
23616;BME280;11985;49.404;7.734;2024-03-22T10:43:35;97523.56;;;13.31;100.00
23616;BME280;11985;49.404;7.734;2024-03-22T10:48:37;97512.44;;;13.47;100.00
23616;BME280;11985;49.404;7.734;2024-03-22T10:53:42;97503.72;;;13.65;100.00
23616;BME280;11985;49.404;7.734;2024-03-22T10:58:46;97499.09;;;13.79;100.00
23616;BME280;11985;49.404;7.734;2024-03-22T11:03:50;97482.63;;;13.95;100.00
23616;BME280;11985;49.404;7.734;2024-03-22T11:08:51;97474.88;;;14.12;100.00
23616;BME280;11985;49.404;7.734;2024-03-22T11:13:55;97470.63;;;14.41;100.00
23616;BME280;11985;49.404;7.734;2024-03-22T11:18:57;97455.78;;;14.70;100.00
23616;BME280;11985;49.404;7.734;2024-03-22T11:24:00;97445.06;;;14.76;100.00
23616;BME280;11985;49.404;7.734;2024-03-22T11:29:03;97438.78;;;15.01;100.00
23616;BME280;11985;49.404;7.734;2024-03-22T11:34:04;97428.41;;;15.11;100.00
23616;BME280;11985;49.404;7.734;2024-03-22T11:39:06;97423.41;;;15.15;100.00
23616;BME280;11985;49.404;7.734;2024-03-22T11:44:09;97413.84;;;15.25;100.00
23616;BME280;11985;49.404;7.734;2024-03-22T11:49:11;97409.47;;;15.19;100.00
23616;BME280;11985;49.404;7.734;2024-03-22T11:54:13;97407.06;;;15.06;100.00
23616;BME280;11985;49.404;7.734;2024-03-22T11:59:19;97394.13;;;14.98;100.00
23616;BME280;11985;49.404;7.734;2024-03-22T12:04:22;97405.09;;;15.13;100.00
23616;BME280;11985;49.404;7.734;2024-03-22T12:09:24;97390.34;;;15.17;100.00
23616;BME280;11985;49.404;7.734;2024-03-22T12:14:26;97383.84;;;15.37;100.00
23616;BME280;11985;49.404;7.734;2024-03-22T12:19:28;97377.84;;;15.29;100.00
23616;BME280;11985;49.404;7.734;2024-03-22T12:24:32;97385.09;;;15.46;100.00
23616;BME280;11985;49.404;7.734;2024-03-22T12:29:35;97373.91;;;15.96;100.00
23616;BME280;11985;49.404;7.734;2024-03-22T12:34:36;97357.31;;;16.17;100.00
23616;BME280;11985;49.404;7.734;2024-03-22T12:39:39;97351.31;;;16.10;100.00
23616;BME280;11985;49.404;7.734;2024-03-22T12:44:42;97348.94;;;16.42;100.00
23616;BME280;11985;49.404;7.734;2024-03-22T12:49:44;97342.34;;;16.45;100.00
23616;BME280;11985;49.404;7.734;2024-03-22T12:54:46;97333.28;;;16.12;100.00
23616;BME280;11985;49.404;7.734;2024-03-22T12:59:49;97335.66;;;15.97;100.00
23616;BME280;11985;49.404;7.734;2024-03-22T13:04:51;97317.47;;;15.89;100.00
23616;BME280;11985;49.404;7.734;2024-03-22T13:09:53;97307.31;;;15.86;100.00
23616;BME280;11985;49.404;7.734;2024-03-22T13:14:57;97294.13;;;15.91;100.00
23616;BME280;11985;49.404;7.734;2024-03-22T13:19:58;97287.03;;;15.79;100.00
23616;BME280;11985;49.404;7.734;2024-03-22T13:25:01;97274.94;;;15.60;100.00
23616;BME280;11985;49.404;7.734;2024-03-22T13:30:09;97278.78;;;15.64;100.00
23616;BME280;11985;49.404;7.734;2024-03-22T13:35:11;97271.66;;;15.81;100.00
23616;BME280;11985;49.404;7.734;2024-03-22T13:40:13;97261.53;;;15.95;100.00
23616;BME280;11985;49.404;7.734;2024-03-22T13:45:16;97256.00;;;16.14;100.00
23616;BME280;11985;49.404;7.734;2024-03-22T13:50:18;97247.38;;;16.23;100.00
23616;BME280;11985;49.404;7.734;2024-03-22T13:55:22;97240.03;;;15.97;100.00
23616;BME280;11985;49.404;7.734;2024-03-22T14:00:26;97233.28;;;15.89;100.00
23616;BME280;11985;49.404;7.734;2024-03-22T14:05:28;97228.25;;;15.76;100.00
23616;BME280;11985;49.404;7.734;2024-03-22T14:10:30;97214.84;;;15.54;100.00
23616;BME280;11985;49.404;7.734;2024-03-22T14:15:33;97199.13;;;15.36;100.00
23616;BME280;11985;49.404;7.734;2024-03-22T14:20:36;97186.09;;;15.34;100.00
23616;BME280;11985;49.404;7.734;2024-03-22T14:25:37;97187.00;;;15.40;100.00
23616;BME280;11985;49.404;7.734;2024-03-22T14:30:40;97172.72;;;15.57;100.00
23616;BME280;11985;49.404;7.734;2024-03-22T14:35:42;97171.63;;;15.70;100.00
23616;BME280;11985;49.404;7.734;2024-03-22T14:40:44;97155.94;;;15.69;100.00
23616;BME280;11985;49.404;7.734;2024-03-22T14:45:47;97144.22;;;15.53;100.00
23616;BME280;11985;49.404;7.734;2024-03-22T14:50:49;97147.63;;;15.65;100.00
23616;BME280;11985;49.404;7.734;2024-03-22T14:55:52;97129.31;;;15.80;100.00
23616;BME280;11985;49.404;7.734;2024-03-22T15:00:56;97124.78;;;15.98;100.00
23616;BME280;11985;49.404;7.734;2024-03-22T15:05:59;97105.28;;;16.09;100.00
23616;BME280;11985;49.404;7.734;2024-03-22T15:11:01;97100.84;;;16.15;100.00
23616;BME280;11985;49.404;7.734;2024-03-22T15:16:05;97079.38;;;16.38;100.00
23616;BME280;11985;49.404;7.734;2024-03-22T15:21:07;97082.59;;;16.84;100.00
23616;BME280;11985;49.404;7.734;2024-03-22T15:26:09;97079.66;;;17.39;100.00
23616;BME280;11985;49.404;7.734;2024-03-22T15:31:12;97068.53;;;17.48;100.00
23616;BME280;11985;49.404;7.734;2024-03-22T15:36:14;97060.16;;;17.66;100.00
23616;BME280;11985;49.404;7.734;2024-03-22T15:41:15;97054.53;;;18.00;99.91
23616;BME280;11985;49.404;7.734;2024-03-22T15:46:20;97048.38;;;18.52;98.98
23616;BME280;11985;49.404;7.734;2024-03-22T15:51:21;97052.19;;;17.71;95.53
23616;BME280;11985;49.404;7.734;2024-03-22T15:56:23;97056.03;;;16.89;97.72
23616;BME280;11985;49.404;7.734;2024-03-22T16:01:26;97033.13;;;16.61;100.00
23616;BME280;11985;49.404;7.734;2024-03-22T16:06:28;97030.88;;;16.53;100.00
23616;BME280;11985;49.404;7.734;2024-03-22T16:11:30;97035.00;;;16.39;100.00
23616;BME280;11985;49.404;7.734;2024-03-22T16:16:34;97034.53;;;16.25;100.00
23616;BME280;11985;49.404;7.734;2024-03-22T16:21:35;97028.50;;;16.29;100.00
23616;BME280;11985;49.404;7.734;2024-03-22T16:26:37;97020.66;;;16.40;100.00
23616;BME280;11985;49.404;7.734;2024-03-22T16:31:40;97019.41;;;16.25;100.00
23616;BME280;11985;49.404;7.734;2024-03-22T16:36:42;97020.97;;;16.21;100.00
23616;BME280;11985;49.404;7.734;2024-03-22T16:41:43;97013.84;;;16.05;100.00
23616;BME280;11985;49.404;7.734;2024-03-22T16:46:46;96999.25;;;16.07;100.00
23616;BME280;11985;49.404;7.734;2024-03-22T16:51:48;97000.00;;;16.03;100.00
23616;BME280;11985;49.404;7.734;2024-03-22T16:56:50;96997.66;;;15.84;100.00
23616;BME280;11985;49.404;7.734;2024-03-22T17:01:53;96993.31;;;15.78;100.00
23616;BME280;11985;49.404;7.734;2024-03-22T17:06:56;96988.00;;;15.78;100.00
23616;BME280;11985;49.404;7.734;2024-03-22T17:11:57;96978.91;;;15.74;100.00
23616;BME280;11985;49.404;7.734;2024-03-22T17:17:00;96980.44;;;15.70;100.00
23616;BME280;11985;49.404;7.734;2024-03-22T17:22:02;96971.50;;;15.76;100.00
23616;BME280;11985;49.404;7.734;2024-03-22T17:27:04;96970.63;;;15.71;100.00
23616;BME280;11985;49.404;7.734;2024-03-22T17:32:07;96975.47;;;15.57;100.00
23616;BME280;11985;49.404;7.734;2024-03-22T17:37:09;96966.66;;;15.35;100.00
23616;BME280;11985;49.404;7.734;2024-03-22T17:42:13;96972.16;;;15.11;100.00
23616;BME280;11985;49.404;7.734;2024-03-22T17:47:16;96970.66;;;14.87;100.00
23616;BME280;11985;49.404;7.734;2024-03-22T17:52:18;96965.97;;;14.60;100.00
23616;BME280;11985;49.404;7.734;2024-03-22T17:57:23;96959.16;;;14.36;100.00
23616;BME280;11985;49.404;7.734;2024-03-22T18:02:27;96960.50;;;14.10;100.00
23616;BME280;11985;49.404;7.734;2024-03-22T18:07:29;96963.66;;;13.95;100.00
23616;BME280;11985;49.404;7.734;2024-03-22T18:12:30;96959.22;;;13.84;100.00
23616;BME280;11985;49.404;7.734;2024-03-22T18:17:33;96955.75;;;13.83;100.00
23616;BME280;11985;49.404;7.734;2024-03-22T18:22:35;96959.91;;;13.79;100.00
23616;BME280;11985;49.404;7.734;2024-03-22T18:27:37;96951.06;;;13.73;100.00
23616;BME280;11985;49.404;7.734;2024-03-22T18:32:40;96953.84;;;13.67;100.00
23616;BME280;11985;49.404;7.734;2024-03-22T18:37:41;96952.13;;;13.61;100.00
23616;BME280;11985;49.404;7.734;2024-03-22T18:42:43;96943.03;;;13.45;100.00
23616;BME280;11985;49.404;7.734;2024-03-22T18:47:46;96949.47;;;13.26;100.00
23616;BME280;11985;49.404;7.734;2024-03-22T18:52:47;96945.31;;;13.06;100.00
23616;BME280;11985;49.404;7.734;2024-03-22T18:57:49;96937.13;;;12.84;100.00
23616;BME280;11985;49.404;7.734;2024-03-22T19:02:52;96939.63;;;12.67;100.00
23616;BME280;11985;49.404;7.734;2024-03-22T19:07:53;96932.66;;;12.43;100.00
23616;BME280;11985;49.404;7.734;2024-03-22T19:12:55;96926.03;;;12.10;100.00
23616;BME280;11985;49.404;7.734;2024-03-22T19:17:58;96926.84;;;11.93;100.00
23616;BME280;11985;49.404;7.734;2024-03-22T19:23:01;96912.13;;;11.85;100.00
23616;BME280;11985;49.404;7.734;2024-03-22T19:28:04;96915.25;;;11.75;100.00
23616;BME280;11985;49.404;7.734;2024-03-22T19:33:10;96913.56;;;11.62;100.00
23616;BME280;11985;49.404;7.734;2024-03-22T19:38:12;96907.56;;;11.55;100.00
23616;BME280;11985;49.404;7.734;2024-03-22T19:43:14;96902.50;;;11.72;100.00
23616;BME280;11985;49.404;7.734;2024-03-22T19:48:17;96902.88;;;11.94;100.00
23616;BME280;11985;49.404;7.734;2024-03-22T19:53:19;96893.31;;;11.93;100.00
23616;BME280;11985;49.404;7.734;2024-03-22T19:58:20;96891.44;;;11.82;100.00
23616;BME280;11985;49.404;7.734;2024-03-22T20:03:25;96869.31;;;11.64;100.00
23616;BME280;11985;49.404;7.734;2024-03-22T20:08:27;96869.19;;;11.41;100.00
23616;BME280;11985;49.404;7.734;2024-03-22T20:13:28;96866.41;;;11.18;100.00
23616;BME280;11985;49.404;7.734;2024-03-22T20:18:31;96851.88;;;10.90;100.00
23616;BME280;11985;49.404;7.734;2024-03-22T20:23:33;96853.72;;;10.65;100.00
23616;BME280;11985;49.404;7.734;2024-03-22T20:28:36;96849.84;;;10.42;100.00
23616;BME280;11985;49.404;7.734;2024-03-22T20:33:38;96839.47;;;10.16;100.00
